createdAt,value
2019-05-20T00:00:40.781Z,98.20
2019-05-20T00:03:09.530Z,98.40
2019-05-20T00:05:38.306Z,98.40
2019-05-20T00:08:07.435Z,98.50
2019-05-20T00:10:36.221Z,98.60
2019-05-20T00:13:05.042Z,98.80
2019-05-20T00:15:33.847Z,98.70
2019-05-20T00:18:02.567Z,98.90
2019-05-20T00:20:31.264Z,98.90
2019-05-20T00:23:00.170Z,99.00
2019-05-20T00:25:28.843Z,99.10
2019-05-20T00:27:57.807Z,99.30
2019-05-20T00:30:26.549Z,99.30
2019-05-20T00:32:55.231Z,99.40
2019-05-20T00:35:23.898Z,99.40
2019-05-20T00:37:52.687Z,99.40
2019-05-20T00:40:21.655Z,99.50
2019-05-20T00:42:50.331Z,99.40
2019-05-20T00:45:19.132Z,99.50
2019-05-20T00:47:47.975Z,99.50
2019-05-20T00:50:16.718Z,99.50
2019-05-20T00:52:45.442Z,99.50
2019-05-20T00:55:24.289Z,99.50
2019-05-20T00:57:53.432Z,99.60
2019-05-20T01:00:22.981Z,99.60
2019-05-20T01:02:56.949Z,99.80
2019-05-20T01:05:22.234Z,99.80
2019-05-20T01:07:51.090Z,99.90
2019-05-20T01:10:20.088Z,99.90
2019-05-20T01:12:49.095Z,99.90
2019-05-20T01:15:18.254Z,99.90
2019-05-20T01:17:47.309Z,99.90
2019-05-20T01:20:16.493Z,99.90
2019-05-20T01:22:45.488Z,99.90
2019-05-20T01:25:14.294Z,99.90
2019-05-20T01:27:43.210Z,99.90
2019-05-20T01:30:14.104Z,99.90
2019-05-20T01:32:43.012Z,99.90
2019-05-20T01:35:12.240Z,99.90
2019-05-20T01:37:40.925Z,99.90
2019-05-20T01:40:09.965Z,99.90
2019-05-20T01:42:38.963Z,99.90
2019-05-20T01:45:08.035Z,99.90
2019-05-20T01:47:36.735Z,99.90
2019-05-20T01:50:06.610Z,99.90
2019-05-20T01:52:35.811Z,99.90
2019-05-20T01:55:05.256Z,99.90
2019-05-20T01:57:34.094Z,99.90
2019-05-20T02:00:03.254Z,99.90
2019-05-20T02:02:31.923Z,99.90
2019-05-20T02:05:00.646Z,99.90
2019-05-20T02:07:29.603Z,99.90
2019-05-20T02:09:58.296Z,99.90
2019-05-20T02:12:27.052Z,99.90
2019-05-20T02:15:01.889Z,99.90
2019-05-20T02:17:30.811Z,99.90
2019-05-20T02:19:59.513Z,99.90
2019-05-20T02:22:28.266Z,99.90
2019-05-20T02:24:57.284Z,99.90
2019-05-20T02:27:26.154Z,99.90
2019-05-20T02:29:55.127Z,99.90
2019-05-20T02:32:24.159Z,99.90
2019-05-20T02:34:52.848Z,99.90
2019-05-20T02:37:21.846Z,99.90
2019-05-20T02:39:50.712Z,99.90
2019-05-20T02:42:19.756Z,99.90
2019-05-20T02:44:48.562Z,99.90
2019-05-20T02:47:18.147Z,99.90
2019-05-20T02:49:47.437Z,99.90
2019-05-20T02:52:16.748Z,99.90
2019-05-20T02:54:45.967Z,99.90
2019-05-20T02:57:14.697Z,99.90
2019-05-20T02:59:43.630Z,99.90
2019-05-20T03:02:12.452Z,99.90
2019-05-20T03:04:41.139Z,99.90
2019-05-20T03:07:09.951Z,99.90
2019-05-20T03:09:38.662Z,99.90
2019-05-20T03:12:07.359Z,99.90
2019-05-20T03:14:36.171Z,99.90
2019-05-20T03:17:05.262Z,99.90
2019-05-20T03:19:34.004Z,99.90
2019-05-20T03:22:02.939Z,99.90
2019-05-20T03:24:32.223Z,99.90
2019-05-20T03:27:01.170Z,99.90
2019-05-20T03:29:29.880Z,99.90
2019-05-20T03:31:58.909Z,99.90
2019-05-20T03:34:45.775Z,99.90
2019-05-20T03:36:58.020Z,99.90
2019-05-20T03:39:27.421Z,99.90
2019-05-20T03:41:56.337Z,99.90
2019-05-20T03:44:25.063Z,99.90
2019-05-20T03:46:53.872Z,99.70
2019-05-20T03:49:22.819Z,99.10
2019-05-20T03:51:52.604Z,98.50
2019-05-20T03:54:22.579Z,98.20
2019-05-20T03:56:51.504Z,97.40
2019-05-20T03:59:20.248Z,96.60
2019-05-20T04:01:48.966Z,96.40
2019-05-20T04:04:17.687Z,96.80
2019-05-20T04:06:46.621Z,96.70
2019-05-20T04:09:15.595Z,96.70
2019-05-20T04:11:44.717Z,96.20
2019-05-20T04:14:13.383Z,96.00
2019-05-20T04:16:42.187Z,95.80
2019-05-20T04:19:11.090Z,95.30
2019-05-20T04:21:40.033Z,94.20
2019-05-20T04:24:08.918Z,93.10
2019-05-20T04:26:37.926Z,93.00
2019-05-20T04:29:06.650Z,93.20
2019-05-20T04:31:35.779Z,93.10
2019-05-20T04:34:04.544Z,92.90
2019-05-20T04:36:33.388Z,93.30
2019-05-20T04:39:02.251Z,93.10
2019-05-20T04:41:30.978Z,93.50
2019-05-20T04:43:59.703Z,92.80
2019-05-20T04:46:28.761Z,93.10
2019-05-20T04:48:57.420Z,94.30
2019-05-20T04:51:26.127Z,94.90
2019-05-20T04:53:55.316Z,95.00
2019-05-20T04:56:24.604Z,94.60
2019-05-20T04:58:53.453Z,94.50
2019-05-20T05:01:22.437Z,95.20
2019-05-20T05:03:51.518Z,95.80
2019-05-20T05:06:21.253Z,96.00
2019-05-20T05:08:50.049Z,95.80
2019-05-20T05:11:19.106Z,95.70
2019-05-20T05:13:48.103Z,95.40
2019-05-20T05:16:16.970Z,96.00
2019-05-20T05:18:46.165Z,95.90
2019-05-20T05:21:14.921Z,95.00
2019-05-20T05:23:58.069Z,94.00
2019-05-20T05:26:14.308Z,93.50
2019-05-20T05:28:43.316Z,92.90
2019-05-20T05:31:12.675Z,91.90
2019-05-20T05:33:41.512Z,91.00
2019-05-20T05:36:10.387Z,90.70
2019-05-20T05:38:39.524Z,91.50
2019-05-20T05:41:08.587Z,90.90
2019-05-20T05:43:37.644Z,92.20
2019-05-20T05:46:06.600Z,93.30
2019-05-20T05:48:35.282Z,93.60
2019-05-20T05:51:04.040Z,93.60
2019-05-20T05:53:32.775Z,93.60
2019-05-20T05:56:01.477Z,92.40
2019-05-20T05:58:30.286Z,90.00
2019-05-20T06:00:59.560Z,86.70
2019-05-20T06:03:28.301Z,84.90
2019-05-20T06:06:11.299Z,79.90
2019-05-20T06:08:27.970Z,79.00
2019-05-20T06:11:01.015Z,82.70
2019-05-20T06:15:58.659Z,84.50
2019-05-20T06:18:27.662Z,86.00
2019-05-20T06:20:56.376Z,85.30
2019-05-20T06:23:25.247Z,81.90
2019-05-20T06:25:54.115Z,75.40
2019-05-20T06:28:22.909Z,71.20
2019-05-20T06:30:52.219Z,69.30
2019-05-20T06:33:21.135Z,69.00
2019-05-20T06:35:50.566Z,68.20
2019-05-20T06:38:41.451Z,65.80
2019-05-20T06:41:10.214Z,65.00
2019-05-20T06:43:39.245Z,65.70
2019-05-20T06:46:08.562Z,68.90
2019-05-20T06:48:37.322Z,67.80
2019-05-20T06:51:06.063Z,66.20
2019-05-20T06:53:35.275Z,66.00
2019-05-20T06:56:04.285Z,63.80
2019-05-20T06:58:33.545Z,61.70
2019-05-20T07:01:03.347Z,61.30
2019-05-20T07:03:32.200Z,59.20
2019-05-20T07:06:01.324Z,57.60
2019-05-20T07:08:30.296Z,56.60
2019-05-20T07:10:59.512Z,56.50
2019-05-20T07:13:28.654Z,55.70
2019-05-20T07:15:58.520Z,56.60
2019-05-20T07:18:27.593Z,58.60
2019-05-20T07:20:56.939Z,57.20
2019-05-20T07:23:25.790Z,54.70
2019-05-20T07:25:54.441Z,54.40
2019-05-20T07:28:23.230Z,54.90
2019-05-20T07:30:52.067Z,55.10
2019-05-20T07:33:20.784Z,52.30
2019-05-20T07:35:50.071Z,53.00
2019-05-20T07:38:19.498Z,54.50
2019-05-20T07:40:48.424Z,54.50
2019-05-20T07:43:17.601Z,53.60
2019-05-20T07:45:47.426Z,54.40
2019-05-20T07:48:16.813Z,55.60
2019-05-20T07:50:46.355Z,56.10
2019-05-20T07:53:16.265Z,57.20
2019-05-20T07:55:54.931Z,56.80
2019-05-20T07:58:26.274Z,54.90
2019-05-20T08:00:55.244Z,53.70
2019-05-20T08:03:24.247Z,52.60
2019-05-20T08:05:53.075Z,53.30
2019-05-20T08:08:21.834Z,53.80
2019-05-20T08:10:50.611Z,54.30
2019-05-20T08:13:19.675Z,56.80
2019-05-20T08:15:48.699Z,57.80
2019-05-20T08:18:20.130Z,57.70
2019-05-20T08:20:47.982Z,55.70
2019-05-20T08:23:16.650Z,53.30
2019-05-20T08:25:45.636Z,50.20
2019-05-20T08:28:14.326Z,51.40
2019-05-20T08:30:43.148Z,52.70
2019-05-20T08:33:11.827Z,52.80
2019-05-20T08:35:40.877Z,52.30
2019-05-20T08:38:09.664Z,52.60
2019-05-20T08:40:38.483Z,53.00
2019-05-20T08:43:07.302Z,54.40
2019-05-20T08:45:36.028Z,53.60
2019-05-20T08:48:05.023Z,53.40
2019-05-20T08:50:33.884Z,52.10
2019-05-20T08:53:02.698Z,50.80
2019-05-20T08:55:31.754Z,52.20
2019-05-20T08:58:00.523Z,52.80
2019-05-20T09:00:29.331Z,53.00
2019-05-20T09:02:58.397Z,51.70
2019-05-20T09:05:28.852Z,51.60
2019-05-20T09:08:02.792Z,52.10
2019-05-20T09:10:28.494Z,51.90
2019-05-20T09:12:57.226Z,49.30
2019-05-20T09:15:25.987Z,48.90
2019-05-20T09:17:55.059Z,46.80
2019-05-20T09:20:24.911Z,46.00
2019-05-20T09:22:53.811Z,46.50
2019-05-20T09:25:30.518Z,48.30
2019-05-20T09:28:00.091Z,46.90
2019-05-20T09:30:29.287Z,46.20
2019-05-20T09:32:58.329Z,47.50
2019-05-20T09:35:27.540Z,46.90
2019-05-20T09:37:56.227Z,47.40
2019-05-20T09:40:39.189Z,46.20
2019-05-20T09:43:08.199Z,46.00
2019-05-20T09:45:37.095Z,47.20
2019-05-20T09:48:06.696Z,47.70
2019-05-20T09:50:35.547Z,48.90
2019-05-20T09:53:07.235Z,48.50
2019-05-20T09:55:35.354Z,48.60
2019-05-20T09:58:05.392Z,49.60
2019-05-20T10:00:34.219Z,50.10
2019-05-20T10:03:03.462Z,50.20
2019-05-20T10:05:32.682Z,50.60
2019-05-20T10:08:02.268Z,51.90
2019-05-20T10:10:31.291Z,52.70
2019-05-20T10:13:00.519Z,53.30
2019-05-20T10:15:29.351Z,52.50
2019-05-20T10:17:58.388Z,53.30
2019-05-20T10:20:27.279Z,52.90
2019-05-20T10:22:56.307Z,53.40
2019-05-20T10:25:25.186Z,53.00
2019-05-20T10:27:57.327Z,54.00
2019-05-20T10:30:25.959Z,54.20
2019-05-20T10:32:55.001Z,54.80
2019-05-20T10:35:23.738Z,54.00
2019-05-20T10:37:52.620Z,54.40
2019-05-20T10:40:21.447Z,54.70
2019-05-20T10:42:50.212Z,55.40
2019-05-20T10:45:19.306Z,55.20
2019-05-20T10:47:47.990Z,55.20
2019-05-20T10:50:17.382Z,54.20
2019-05-20T10:52:46.044Z,54.20
2019-05-20T10:55:14.922Z,53.60
2019-05-20T10:57:43.596Z,54.20
2019-05-20T11:00:12.588Z,54.00
2019-05-20T11:02:41.271Z,54.50
2019-05-20T11:05:10.298Z,54.30
2019-05-20T11:07:39.137Z,54.30
2019-05-20T11:10:08.858Z,55.20
2019-05-20T11:12:37.530Z,56.30
2019-05-20T11:15:06.918Z,56.50
2019-05-20T11:17:35.719Z,56.50
2019-05-20T11:20:05.537Z,56.40
2019-05-20T11:22:34.730Z,56.50
2019-05-20T11:25:03.807Z,56.50
2019-05-20T11:27:32.566Z,57.00
2019-05-20T11:30:01.514Z,57.20
2019-05-20T11:32:30.509Z,57.00
2019-05-20T11:34:59.465Z,57.40
2019-05-20T11:37:28.419Z,57.30
2019-05-20T11:39:57.292Z,57.10
2019-05-20T11:42:26.032Z,57.20
2019-05-20T11:44:54.742Z,57.90
2019-05-20T11:47:23.582Z,57.10
2019-05-20T11:49:52.344Z,57.40
2019-05-20T11:52:21.314Z,57.60
2019-05-20T11:54:50.121Z,57.70
2019-05-20T11:57:18.856Z,58.30
2019-05-20T11:59:47.918Z,58.80
2019-05-20T12:02:16.741Z,58.60
2019-05-20T12:04:45.684Z,58.00
2019-05-20T12:07:14.357Z,58.00
2019-05-20T12:09:49.654Z,57.10
2019-05-20T12:12:16.322Z,57.90
2019-05-20T12:14:45.409Z,58.20
2019-05-20T12:17:14.225Z,58.60
2019-05-20T12:19:43.128Z,59.00
2019-05-20T12:22:11.810Z,59.50
2019-05-20T12:24:40.861Z,59.10
2019-05-20T12:27:09.657Z,59.70
2019-05-20T12:29:38.476Z,59.10
2019-05-20T12:32:07.240Z,58.80
2019-05-20T12:34:35.941Z,58.90
2019-05-20T12:37:05.023Z,58.90
2019-05-20T12:39:34.465Z,58.70
2019-05-20T12:42:03.438Z,59.30
2019-05-20T12:44:32.256Z,60.60
2019-05-20T12:47:00.962Z,61.00
2019-05-20T12:49:29.729Z,61.10
2019-05-20T12:51:58.508Z,60.30
2019-05-20T12:54:27.343Z,60.40
2019-05-20T12:56:56.115Z,61.10
2019-05-20T12:59:24.853Z,61.60
2019-05-20T13:01:53.644Z,60.60
2019-05-20T13:04:22.594Z,60.80
2019-05-20T13:06:51.287Z,60.00
2019-05-20T13:09:20.307Z,60.30
2019-05-20T13:11:49.238Z,60.00
2019-05-20T13:14:18.458Z,60.20
2019-05-20T13:16:47.180Z,61.00
2019-05-20T13:19:16.176Z,60.90
2019-05-20T13:21:44.844Z,60.70
2019-05-20T13:24:13.869Z,61.70
2019-05-20T13:26:42.567Z,63.00
2019-05-20T13:29:11.451Z,63.70
2019-05-20T13:31:40.387Z,63.90
2019-05-20T13:34:09.201Z,64.00
2019-05-20T13:36:38.153Z,64.30
2019-05-20T13:39:08.550Z,64.10
2019-05-20T13:41:37.404Z,64.20
2019-05-20T13:44:06.465Z,65.00
2019-05-20T13:46:35.442Z,65.40
2019-05-20T13:49:04.117Z,65.60
2019-05-20T13:51:32.786Z,66.20
2019-05-20T13:54:01.603Z,66.60
2019-05-20T13:56:30.377Z,67.80
2019-05-20T13:58:59.177Z,67.50
2019-05-20T14:01:28.106Z,67.90
2019-05-20T14:03:58.150Z,68.20
2019-05-20T14:06:27.011Z,68.10
2019-05-20T14:08:55.946Z,68.60
2019-05-20T14:11:34.178Z,68.70
2019-05-20T14:13:55.500Z,69.10
2019-05-20T14:16:24.523Z,69.50
2019-05-20T14:18:53.209Z,70.80
2019-05-20T14:21:22.054Z,71.80
2019-05-20T14:23:51.201Z,73.60
2019-05-20T14:26:20.255Z,74.70
2019-05-20T14:28:49.436Z,74.80
2019-05-20T14:31:18.187Z,77.10
2019-05-20T14:33:47.145Z,77.70
2019-05-20T14:36:37.785Z,77.90
2019-05-20T14:38:46.555Z,77.60
2019-05-20T14:41:21.647Z,78.50
2019-05-20T14:43:45.772Z,80.50
2019-05-20T14:46:14.590Z,82.40
2019-05-20T14:48:43.276Z,83.70
2019-05-20T14:51:12.617Z,85.00
2019-05-20T14:53:41.567Z,87.10
2019-05-20T14:56:10.994Z,88.10
2019-05-20T14:58:39.774Z,89.00
2019-05-20T15:01:08.830Z,90.10
2019-05-20T15:03:37.805Z,90.50
2019-05-20T15:06:06.542Z,91.70
2019-05-20T15:08:35.375Z,91.60
2019-05-20T15:11:04.202Z,92.40
2019-05-20T15:13:32.863Z,92.80
2019-05-20T15:16:01.758Z,93.00
2019-05-20T15:18:30.645Z,93.10
2019-05-20T15:20:59.312Z,94.80
2019-05-20T15:23:28.099Z,94.40
2019-05-20T15:25:57.057Z,94.70
2019-05-20T15:28:25.734Z,94.20
2019-05-20T15:30:54.517Z,93.90
2019-05-20T15:33:23.263Z,93.20
2019-05-20T15:35:52.091Z,95.30
2019-05-20T15:38:21.131Z,97.50
2019-05-20T15:40:50.032Z,98.70
2019-05-20T15:43:18.680Z,99.90
2019-05-20T15:45:47.699Z,99.90
2019-05-20T15:48:16.389Z,99.90
2019-05-20T15:50:45.033Z,99.90
2019-05-20T15:53:13.958Z,99.90
2019-05-20T15:55:43.043Z,99.90
2019-05-20T15:58:11.730Z,99.90
2019-05-20T16:00:40.485Z,99.90
2019-05-20T16:03:09.374Z,99.90
2019-05-20T16:05:38.334Z,99.90
2019-05-20T16:08:07.384Z,99.90
2019-05-20T16:10:36.309Z,99.90
2019-05-20T16:13:05.065Z,99.90
2019-05-20T16:15:34.317Z,99.90
2019-05-20T16:18:03.102Z,99.90
2019-05-20T16:20:32.298Z,99.90
2019-05-20T16:23:01.290Z,99.90
2019-05-20T16:25:30.198Z,99.90
2019-05-20T16:27:59.090Z,99.90
2019-05-20T16:30:27.977Z,99.90
2019-05-20T16:32:56.800Z,99.90
2019-05-20T16:35:25.562Z,99.90
2019-05-20T16:37:54.687Z,99.90
2019-05-20T16:40:23.354Z,99.90
2019-05-20T16:42:54.555Z,99.90
2019-05-20T16:45:23.455Z,99.90
2019-05-20T16:47:52.162Z,99.90
2019-05-20T16:50:20.808Z,99.90
2019-05-20T16:52:52.102Z,99.90
2019-05-20T16:55:22.381Z,99.90
2019-05-20T16:57:51.791Z,99.90
2019-05-20T17:00:31.616Z,99.90
2019-05-20T17:02:51.720Z,99.90
2019-05-20T17:05:20.530Z,99.90
2019-05-20T17:07:49.473Z,99.90
2019-05-20T17:10:18.268Z,99.90
2019-05-20T17:12:47.082Z,99.90
2019-05-20T17:15:16.171Z,99.90
2019-05-20T17:17:45.412Z,99.90
2019-05-20T17:20:14.382Z,99.90
2019-05-20T17:22:44.322Z,99.90
2019-05-20T17:25:13.219Z,99.90
2019-05-20T17:27:42.014Z,99.90
2019-05-20T17:30:13.552Z,99.90
2019-05-20T17:32:42.365Z,99.90
2019-05-20T17:35:11.250Z,99.90
2019-05-20T17:37:40.077Z,99.90
2019-05-20T17:40:09.578Z,99.90
2019-05-20T17:42:38.428Z,99.90
2019-05-20T17:45:08.039Z,99.90
2019-05-20T17:47:36.926Z,99.90
2019-05-20T17:50:05.970Z,99.90
2019-05-20T17:52:35.143Z,99.90
2019-05-20T17:55:03.922Z,99.90
2019-05-20T17:57:32.805Z,99.90
2019-05-20T18:00:01.621Z,99.90
2019-05-20T18:02:30.675Z,99.90
2019-05-20T18:05:00.694Z,99.90
2019-05-20T18:07:29.767Z,99.90
2019-05-20T18:09:58.634Z,99.90
2019-05-20T18:12:27.481Z,99.90
2019-05-20T18:14:59.295Z,99.90
2019-05-20T18:17:30.690Z,99.90
2019-05-20T18:19:59.735Z,99.90
2019-05-20T18:22:28.550Z,99.90
2019-05-20T18:24:57.550Z,99.90
2019-05-20T18:27:26.482Z,99.90
2019-05-20T18:29:57.946Z,99.90
2019-05-20T18:32:26.786Z,99.90
2019-05-20T18:34:55.709Z,99.90
2019-05-20T18:37:24.694Z,99.90
2019-05-20T18:39:53.378Z,99.90
2019-05-20T18:42:22.310Z,99.90
2019-05-20T18:44:50.993Z,99.90
2019-05-20T18:47:19.738Z,99.90
2019-05-20T18:49:48.428Z,99.90
2019-05-20T18:52:17.535Z,99.90
2019-05-20T18:54:46.335Z,99.90
2019-05-20T18:57:15.219Z,99.90
2019-05-20T18:59:44.166Z,99.90
2019-05-20T19:02:12.986Z,99.90
2019-05-20T19:04:43.591Z,99.90
2019-05-20T19:07:12.547Z,99.90
2019-05-20T19:09:41.318Z,99.90
2019-05-20T19:12:10.185Z,99.90
2019-05-20T19:14:38.989Z,99.90
2019-05-20T19:17:08.136Z,99.90
2019-05-20T19:19:37.013Z,99.90
2019-05-20T19:22:06.051Z,99.90
2019-05-20T19:24:34.806Z,99.90
2019-05-20T19:27:05.728Z,99.90
2019-05-20T19:29:34.443Z,99.90
2019-05-20T19:32:03.919Z,99.90
2019-05-20T19:34:32.626Z,99.90
2019-05-20T19:37:01.382Z,99.90
2019-05-20T19:39:30.099Z,99.90
2019-05-20T19:41:58.889Z,99.90
2019-05-20T19:44:27.667Z,99.90
2019-05-20T19:46:56.379Z,99.90
2019-05-20T19:49:25.142Z,99.90
2019-05-20T19:51:54.249Z,99.90
2019-05-20T19:54:22.963Z,99.90
2019-05-20T19:56:52.130Z,99.90
2019-05-20T19:59:21.177Z,99.90
2019-05-20T20:01:49.862Z,99.90
2019-05-20T20:04:18.543Z,99.90
2019-05-20T20:06:47.439Z,99.90
2019-05-20T20:09:16.156Z,99.90
2019-05-20T20:11:45.030Z,99.90
2019-05-20T20:14:13.763Z,99.90
2019-05-20T20:16:42.705Z,99.90
2019-05-20T20:19:11.364Z,99.90
2019-05-20T20:21:40.251Z,99.90
2019-05-20T20:24:09.549Z,99.90
2019-05-20T20:26:38.384Z,99.90
2019-05-20T20:29:11.157Z,99.90
2019-05-20T20:31:39.715Z,99.90
2019-05-20T20:34:08.398Z,99.90
2019-05-20T20:36:37.185Z,99.90
2019-05-20T20:39:06.490Z,99.90
2019-05-20T20:41:35.229Z,99.90
2019-05-20T20:44:04.534Z,99.90
2019-05-20T20:46:33.644Z,99.90
2019-05-20T20:49:02.428Z,99.90
2019-05-20T20:51:31.217Z,99.90
2019-05-20T20:53:59.916Z,99.90
2019-05-20T20:56:28.590Z,99.90
2019-05-20T20:58:57.827Z,99.90
2019-05-20T21:01:26.553Z,99.90
2019-05-20T21:03:55.229Z,99.90
2019-05-20T21:06:24.001Z,99.90
2019-05-20T21:08:52.826Z,99.90
2019-05-20T21:11:21.878Z,99.90
2019-05-20T21:13:51.030Z,99.90
2019-05-20T21:16:19.722Z,99.90
2019-05-20T21:18:48.394Z,99.90
2019-05-20T21:21:17.182Z,99.90
2019-05-20T21:23:46.120Z,99.90
2019-05-20T21:26:14.775Z,99.90
2019-05-20T21:28:43.502Z,99.90
2019-05-20T21:31:12.715Z,99.90
2019-05-20T21:33:41.672Z,99.90
2019-05-20T21:36:10.771Z,99.90
2019-05-20T21:38:39.666Z,99.90
2019-05-20T21:41:08.644Z,99.90
2019-05-20T21:43:37.512Z,99.90
2019-05-20T21:46:06.309Z,99.90
2019-05-20T21:48:35.079Z,99.90
2019-05-20T21:51:04.165Z,99.90
2019-05-20T21:53:33.219Z,99.90
2019-05-20T21:56:02.111Z,99.90
2019-05-20T21:58:31.275Z,99.90
2019-05-20T22:01:00.161Z,99.90
2019-05-20T22:03:29.141Z,99.90
2019-05-20T22:05:58.111Z,99.90
2019-05-20T22:08:26.897Z,99.90
2019-05-20T22:10:55.620Z,99.90
2019-05-20T22:13:24.571Z,99.90
2019-05-20T22:15:53.286Z,99.90
2019-05-20T22:18:21.962Z,99.90
2019-05-20T22:20:50.714Z,99.90
2019-05-20T22:23:41.582Z,99.90
2019-05-20T22:26:10.397Z,99.90
2019-05-20T22:28:39.193Z,99.90
2019-05-20T22:31:26.163Z,99.90
2019-05-20T22:33:56.693Z,99.90
2019-05-20T22:36:25.375Z,99.90
2019-05-20T22:38:54.146Z,99.90
2019-05-20T22:41:22.965Z,99.90
2019-05-20T22:43:55.701Z,99.90
2019-05-20T22:46:24.571Z,99.90
2019-05-20T22:48:53.274Z,99.90
2019-05-20T22:51:21.965Z,99.90
2019-05-20T22:53:50.694Z,99.90
2019-05-20T22:56:19.720Z,99.90
2019-05-20T22:58:49.035Z,99.90
2019-05-20T23:01:17.927Z,99.90
2019-05-20T23:04:22.486Z,99.90
2019-05-20T23:06:51.296Z,99.90
2019-05-20T23:09:20.063Z,99.90
2019-05-20T23:11:49.129Z,99.90
2019-05-20T23:14:17.843Z,99.90
2019-05-20T23:16:46.533Z,99.90
2019-05-20T23:19:15.450Z,99.90
2019-05-20T23:21:44.498Z,99.90
2019-05-20T23:24:13.246Z,99.90
2019-05-20T23:26:41.949Z,99.90
2019-05-20T23:29:11.071Z,99.90
2019-05-20T23:31:39.847Z,99.90
2019-05-20T23:34:12.732Z,99.90
2019-05-20T23:36:39.413Z,99.90
2019-05-20T23:39:08.318Z,99.90
2019-05-20T23:41:36.997Z,99.90
2019-05-20T23:44:05.774Z,99.90
2019-05-20T23:46:34.471Z,99.90
2019-05-20T23:49:03.171Z,99.90
2019-05-20T23:51:32.139Z,99.90
2019-05-20T23:54:00.818Z,99.90
2019-05-20T23:56:29.779Z,99.90
2019-05-20T23:58:58.602Z,99.90
